Time;durP1;ratioP1;P1;durP2;ratioP2;P2;SDS_P1;SDS_P2;PMS_P1;PMS_P2;Temp;Humidity;BMP_temperature;BMP_pressure;BME280_temperature;BME280_humidity;BME280_pressure;Samples;Min_cycle;Max_cycle;Signal;HPM_P1;HPM_P2
2022/03/10 00:00:14;;;;;;;27.73;15.30;;;0.80;99.90;;;;;;1833015;77;21463;-79
2022/03/10 00:02:45;;;;;;;28.40;15.85;;;0.80;99.90;;;;;;1839480;77;21095;-78
2022/03/10 00:05:16;;;;;;;28.05;15.38;;;0.70;99.90;;;;;;1849163;77;21239;-79
2022/03/10 00:07:43;;;;;;;31.95;15.80;;;0.70;99.90;;;;;;1845917;77;21056;-78
2022/03/10 00:10:10;;;;;;;29.57;15.98;;;0.70;99.90;;;;;;1848364;76;21090;-78
2022/03/10 00:12:38;;;;;;;43.68;16.23;;;0.60;99.90;;;;;;1850007;76;21504;-79
2022/03/10 00:15:11;;;;;;;30.50;16.23;;;0.60;99.90;;;;;;1852543;76;21586;-79
2022/03/10 00:17:36;;;;;;;26.60;15.68;;;0.50;99.90;;;;;;1827013;77;21152;-78
2022/03/10 00:20:04;;;;;;;28.57;14.80;;;0.40;99.90;;;;;;1853694;76;21064;-79
2022/03/10 00:22:31;;;;;;;26.50;15.00;;;0.40;99.90;;;;;;1850390;77;21175;-79
2022/03/10 00:24:59;;;;;;;30.25;15.38;;;0.40;99.90;;;;;;1844109;76;21089;-78
2022/03/10 00:27:26;;;;;;;27.67;15.18;;;0.40;99.90;;;;;;1831762;76;21223;-78
2022/03/10 00:29:53;;;;;;;33.90;14.93;;;0.30;99.90;;;;;;1843349;77;21096;-77
2022/03/10 00:32:21;;;;;;;29.63;16.02;;;0.30;99.90;;;;;;1841526;76;21190;-78
2022/03/10 00:34:48;;;;;;;30.82;15.65;;;0.20;99.90;;;;;;1823845;77;21102;-78
2022/03/10 00:37:15;;;;;;;28.75;15.32;;;0.20;99.90;;;;;;1846390;77;21097;-78
2022/03/10 00:39:42;;;;;;;25.40;13.85;;;0.20;99.90;;;;;;1839623;77;21445;-79
2022/03/10 00:42:10;;;;;;;23.80;14.65;;;0.20;99.90;;;;;;1839174;77;21085;-79
2022/03/10 00:44:37;;;;;;;23.65;14.43;;;0.10;99.90;;;;;;1847588;77;21506;-77
2022/03/10 00:47:04;;;;;;;32.48;16.52;;;0.10;99.90;;;;;;1837100;76;21076;-79
2022/03/10 00:49:32;;;;;;;34.23;17.45;;;0.00;99.90;;;;;;1839601;76;21088;-79
2022/03/10 00:51:59;;;;;;;33.23;17.15;;;0.00;99.90;;;;;;1846822;77;21133;-78
2022/03/10 00:54:26;;;;;;;29.30;16.67;;;0.00;99.90;;;;;;1856951;76;21064;-78
2022/03/10 00:56:54;;;;;;;31.25;16.93;;;0.00;99.90;;;;;;1851206;77;21091;-78
2022/03/10 00:59:21;;;;;;;29.07;18.05;;;0.00;99.90;;;;;;1846897;77;21262;-78
2022/03/10 01:01:48;;;;;;;35.52;17.73;;;0.00;99.90;;;;;;1847898;77;21503;-78
2022/03/10 01:04:15;;;;;;;27.07;15.70;;;0.00;99.90;;;;;;1841203;77;21103;-79
2022/03/10 01:06:43;;;;;;;28.90;15.38;;;0.00;99.90;;;;;;1838259;77;21498;-78
2022/03/10 01:09:10;;;;;;;29.00;14.87;;;-0.10;99.90;;;;;;1845466;76;21191;-78
2022/03/10 01:11:37;;;;;;;25.27;14.33;;;-0.20;99.90;;;;;;1840186;76;21197;-79
2022/03/10 01:14:05;;;;;;;27.90;15.15;;;-0.20;99.90;;;;;;1867453;76;21087;-78
2022/03/10 01:16:33;;;;;;;36.83;17.23;;;-0.20;99.90;;;;;;1859124;77;21099;-78
2022/03/10 01:19:00;;;;;;;34.03;17.60;;;-0.20;99.90;;;;;;1864829;76;21055;-77
2022/03/10 01:21:27;;;;;;;26.77;17.27;;;-0.30;99.90;;;;;;1848948;76;21177;-77
2022/03/10 01:23:55;;;;;;;28.70;17.92;;;-0.30;99.90;;;;;;1838922;77;21047;-78
2022/03/10 01:26:23;;;;;;;29.15;16.90;;;-0.20;99.90;;;;;;1853564;76;21145;-77
2022/03/10 01:28:51;;;;;;;36.73;18.70;;;-0.30;99.90;;;;;;1838668;75;21500;-78
2022/03/10 01:31:18;;;;;;;28.75;16.57;;;-0.30;99.90;;;;;;1842028;77;21097;-77
2022/03/10 01:33:45;;;;;;;39.90;18.05;;;-0.30;99.90;;;;;;1838878;77;21091;-78
2022/03/10 01:36:12;;;;;;;32.38;17.77;;;-0.40;99.90;;;;;;1859040;76;21122;-77
2022/03/10 01:38:42;;;;;;;28.87;17.23;;;-0.50;99.90;;;;;;1861391;76;21130;-78
2022/03/10 01:41:28;;;;;;;32.33;18.42;;;-0.50;99.90;;;;;;1866885;75;21068;-78
2022/03/10 01:44:01;;;;;;;26.50;16.62;;;-0.40;99.90;;;;;;1857705;77;21027;-79
2022/03/10 01:46:28;;;;;;;28.17;16.93;;;-0.40;99.90;;;;;;1856833;77;21050;-79
2022/03/10 01:48:56;;;;;;;29.67;15.88;;;-0.50;99.90;;;;;;1856815;77;21054;-78
2022/03/10 01:51:24;;;;;;;34.20;16.30;;;-0.30;99.90;;;;;;1856831;77;21058;-78
2022/03/10 01:53:51;;;;;;;24.20;14.90;;;-0.40;99.90;;;;;;1856803;77;21198;-79
2022/03/10 01:56:19;;;;;;;28.45;15.68;;;-0.40;99.90;;;;;;1856801;77;21069;-79
2022/03/10 01:58:47;;;;;;;26.55;15.68;;;-0.40;99.90;;;;;;1856811;77;21061;-79
2022/03/10 02:01:15;;;;;;;26.93;15.35;;;-0.40;99.90;;;;;;1856799;77;21550;-79
2022/03/10 02:03:43;;;;;;;38.95;16.35;;;-0.50;99.90;;;;;;1856884;77;21062;-79
2022/03/10 02:06:11;;;;;;;26.65;15.78;;;-0.50;99.90;;;;;;1856639;77;21062;-78
2022/03/10 02:11:23;;;;;;;26.45;16.37;;;-0.50;99.90;;;;;;1856541;77;21203;-79
2022/03/10 02:13:51;;;;;;;32.63;16.67;;;-0.60;99.90;;;;;;1856574;77;21128;-78
2022/03/10 02:19:04;;;;;;;27.17;15.63;;;-0.70;99.90;;;;;;1856612;77;21498;-78
2022/03/10 02:21:31;;;;;;;31.93;15.78;;;-0.80;99.90;;;;;;1856575;77;21097;-77
2022/03/10 02:23:58;;;;;;;36.28;17.30;;;-0.80;99.90;;;;;;1856609;77;21117;-77
2022/03/10 02:26:26;;;;;;;37.10;16.67;;;-0.80;99.90;;;;;;1856626;77;21469;-76
2022/03/10 02:28:53;;;;;;;26.30;15.38;;;-0.80;99.90;;;;;;1856669;77;21066;-77
2022/03/10 02:31:21;;;;;;;26.73;14.45;;;-0.70;99.90;;;;;;1856596;77;21082;-79
2022/03/10 02:33:48;;;;;;;21.90;13.43;;;-0.80;99.90;;;;;;1856614;77;21148;-78
2022/03/10 02:36:15;;;;;;;27.80;12.98;;;-0.80;99.90;;;;;;1856640;77;21080;-77
2022/03/10 02:38:43;;;;;;;20.25;13.08;;;-0.80;99.90;;;;;;1856628;77;21559;-77
2022/03/10 02:41:10;;;;;;;22.58;13.53;;;-0.80;99.90;;;;;;1856669;77;21031;-80
2022/03/10 02:43:37;;;;;;;26.97;14.55;;;-0.90;99.90;;;;;;1856576;77;21477;-77
2022/03/10 02:46:04;;;;;;;29.77;15.57;;;-1.00;99.90;;;;;;1856502;77;21160;-77
2022/03/10 02:48:32;;;;;;;26.57;14.87;;;-0.90;99.90;;;;;;1856648;77;21548;-77
2022/03/10 02:50:59;;;;;;;28.15;17.25;;;-0.90;99.90;;;;;;1856539;77;21062;-77
2022/03/10 02:53:26;;;;;;;34.27;16.65;;;-0.90;99.90;;;;;;1856611;77;21544;-78
2022/03/10 02:55:54;;;;;;;32.20;16.42;;;-1.00;99.90;;;;;;1856758;77;21560;-77
2022/03/10 02:58:21;;;;;;;43.85;16.70;;;-1.10;99.90;;;;;;1856542;77;21035;-79
2022/03/10 03:00:49;;;;;;;31.25;17.85;;;-1.00;99.90;;;;;;1856617;77;21454;-77
2022/03/10 03:03:16;;;;;;;36.85;17.32;;;-0.90;99.90;;;;;;1856716;77;21099;-77
2022/03/10 03:05:44;;;;;;;25.50;15.55;;;-1.00;99.90;;;;;;1856640;77;21089;-77
2022/03/10 03:08:11;;;;;;;32.58;16.42;;;-1.00;99.90;;;;;;1856608;77;21451;-77
2022/03/10 03:10:38;;;;;;;25.72;14.70;;;-1.00;99.90;;;;;;1856530;77;21035;-77
2022/03/10 03:13:06;;;;;;;40.90;17.20;;;-1.10;99.90;;;;;;1856653;77;21443;-79
2022/03/10 03:15:34;;;;;;;30.65;16.90;;;-1.10;99.90;;;;;;1856594;77;21636;-77
2022/03/10 03:18:01;;;;;;;31.52;16.67;;;-1.20;99.90;;;;;;1856735;77;21135;-79
2022/03/10 03:20:29;;;;;;;29.42;16.55;;;-1.20;99.90;;;;;;1856762;77;21129;-77
2022/03/10 03:22:56;;;;;;;35.58;17.37;;;-1.20;99.90;;;;;;1856746;77;21143;-76
2022/03/10 03:25:23;;;;;;;34.85;17.90;;;-1.20;99.90;;;;;;1857038;77;21046;-79
2022/03/10 03:27:51;;;;;;;26.75;16.57;;;-1.10;99.90;;;;;;1857134;77;21129;-78
2022/03/10 03:30:18;;;;;;;31.02;16.17;;;-1.20;99.90;;;;;;1856880;77;21167;-79
2022/03/10 03:32:46;;;;;;;29.98;18.05;;;-1.20;99.90;;;;;;1856962;77;21144;-78
2022/03/10 03:35:14;;;;;;;29.72;16.73;;;-1.10;99.90;;;;;;1857066;77;21159;-78
2022/03/10 03:38:00;;;;;;;26.95;17.07;;;-1.20;99.90;;;;;;1858844;77;21057;-78
2022/03/10 03:40:28;;;;;;;32.38;16.05;;;-1.20;99.90;;;;;;1821922;77;21069;-79
2022/03/10 03:42:55;;;;;;;30.55;18.07;;;-1.20;99.90;;;;;;1819566;79;21030;-79
2022/03/10 03:45:22;;;;;;;28.47;17.02;;;-1.30;99.90;;;;;;1820677;78;21092;-77
2022/03/10 03:47:50;;;;;;;34.13;17.98;;;-1.30;99.90;;;;;;1820964;79;21112;-78
2022/03/10 03:50:17;;;;;;;26.12;16.12;;;-1.30;99.90;;;;;;1820835;79;21046;-77
2022/03/10 03:52:44;;;;;;;29.92;16.20;;;-1.40;99.90;;;;;;1819233;79;21067;-79
2022/03/10 03:55:12;;;;;;;30.02;17.25;;;-1.30;99.90;;;;;;1817754;79;21045;-77
2022/03/10 03:57:39;;;;;;;31.20;17.90;;;-1.40;99.90;;;;;;1817745;79;21220;-78
2022/03/10 04:00:10;;;;;;;34.78;16.55;;;-1.50;99.90;;;;;;1817790;78;21022;-77
2022/03/10 04:02:38;;;;;;;27.93;17.30;;;-1.50;99.90;;;;;;1817776;78;21446;-77
2022/03/10 04:05:06;;;;;;;31.12;18.17;;;-1.50;99.90;;;;;;1817795;78;21065;-78
2022/03/10 04:07:52;;;;;;;28.38;16.97;;;-1.50;99.90;;;;;;1817737;79;21108;-79
2022/03/10 04:10:20;;;;;;;29.02;16.10;;;-1.50;99.90;;;;;;1797267;80;21128;-79
2022/03/10 04:12:47;;;;;;;29.40;15.95;;;-1.50;99.90;;;;;;1857463;77;21057;-79
2022/03/10 04:15:14;;;;;;;25.30;15.15;;;-1.50;99.90;;;;;;1855110;77;21015;-79
2022/03/10 04:17:42;;;;;;;28.52;15.75;;;-1.40;99.90;;;;;;1855059;77;21057;-77
2022/03/10 04:20:13;;;;;;;32.83;18.20;;;-1.40;99.90;;;;;;1854987;77;21159;-78
2022/03/10 04:22:39;;;;;;;38.67;18.92;;;-1.50;99.90;;;;;;1855142;77;21131;-77
2022/03/10 04:25:08;;;;;;;35.70;18.75;;;-1.50;99.90;;;;;;1855099;77;21054;-77
2022/03/10 04:27:36;;;;;;;31.82;17.23;;;-1.50;99.90;;;;;;1855126;77;21170;-78
2022/03/10 04:30:06;;;;;;;31.27;16.12;;;-1.50;99.90;;;;;;1855038;77;21054;-78
2022/03/10 04:32:44;;;;;;;31.23;16.57;;;-1.60;99.90;;;;;;1855157;77;21061;-78
2022/03/10 04:35:13;;;;;;;30.57;15.50;;;-1.60;99.90;;;;;;1855182;77;21116;-78
2022/03/10 04:37:40;;;;;;;27.22;16.20;;;-1.60;99.90;;;;;;1855370;77;21041;-79
2022/03/10 04:40:08;;;;;;;29.63;16.48;;;-1.60;99.90;;;;;;1855196;77;21043;-79
2022/03/10 04:42:36;;;;;;;25.12;15.70;;;-1.60;99.90;;;;;;1855249;77;21524;-78
2022/03/10 04:45:04;;;;;;;28.00;15.18;;;-1.60;99.90;;;;;;1855152;77;21050;-78
2022/03/10 04:47:32;;;;;;;34.83;15.75;;;-1.60;99.90;;;;;;1855306;77;21057;-77
2022/03/10 04:49:59;;;;;;;26.45;16.05;;;-1.70;99.90;;;;;;1855225;77;21022;-78
2022/03/10 04:52:28;;;;;;;27.67;16.57;;;-1.70;99.90;;;;;;1855218;77;21046;-78
2022/03/10 04:54:55;;;;;;;26.70;15.53;;;-1.70;99.90;;;;;;1854528;76;21175;-78
2022/03/10 04:57:23;;;;;;;29.90;15.35;;;-1.70;99.90;;;;;;1855134;77;21197;-77
2022/03/10 04:59:50;;;;;;;26.97;15.93;;;-1.70;99.90;;;;;;1855222;77;21454;-78
2022/03/10 05:02:17;;;;;;;27.07;15.45;;;-1.80;99.90;;;;;;1855267;77;21026;-78
2022/03/10 05:04:45;;;;;;;29.35;16.32;;;-1.80;99.90;;;;;;1855087;77;21033;-78
2022/03/10 05:07:12;;;;;;;34.45;16.85;;;-1.80;99.90;;;;;;1855183;77;21019;-78
2022/03/10 05:09:39;;;;;;;34.15;16.90;;;-1.90;99.90;;;;;;1855118;77;21111;-79
2022/03/10 05:12:07;;;;;;;32.60;16.57;;;-1.80;99.90;;;;;;1855265;77;21146;-78
2022/03/10 05:14:34;;;;;;;43.40;16.77;;;-1.90;99.90;;;;;;1855183;77;21041;-79
2022/03/10 05:17:02;;;;;;;27.35;16.05;;;-1.90;99.90;;;;;;1855051;77;21118;-78
2022/03/10 05:19:29;;;;;;;30.97;16.42;;;-1.90;99.90;;;;;;1855204;77;21143;-79
2022/03/10 05:21:57;;;;;;;32.20;17.37;;;-1.90;99.90;;;;;;1855051;77;21042;-78
2022/03/10 05:24:24;;;;;;;25.15;15.58;;;-1.90;99.90;;;;;;1855117;77;21045;-77
2022/03/10 05:26:52;;;;;;;31.70;16.05;;;-2.00;99.90;;;;;;1855105;77;21073;-79
2022/03/10 05:29:19;;;;;;;24.10;15.55;;;-2.00;99.90;;;;;;1855030;77;21027;-79
2022/03/10 05:31:46;;;;;;;25.80;15.95;;;-2.00;99.90;;;;;;1855275;77;21135;-79
2022/03/10 05:34:13;;;;;;;28.25;16.70;;;-2.00;99.90;;;;;;1855319;77;21023;-78
2022/03/10 05:36:41;;;;;;;26.00;15.43;;;-2.00;99.90;;;;;;1855295;77;21115;-79
2022/03/10 05:39:09;;;;;;;39.98;16.62;;;-2.00;99.90;;;;;;1855346;77;21450;-79
2022/03/10 05:41:36;;;;;;;26.15;16.07;;;-2.00;99.90;;;;;;1855334;77;21117;-78
2022/03/10 05:44:03;;;;;;;28.00;16.50;;;-2.10;99.90;;;;;;1855209;77;21046;-78
2022/03/10 05:46:31;;;;;;;29.25;17.00;;;-2.00;99.90;;;;;;1855139;77;21046;-78
2022/03/10 05:48:58;;;;;;;32.80;17.80;;;-2.00;99.90;;;;;;1855168;77;21026;-79
2022/03/10 05:51:25;;;;;;;34.15;17.65;;;-2.00;99.90;;;;;;1855249;77;21092;-79
2022/03/10 05:53:53;;;;;;;37.42;16.50;;;-1.90;99.90;;;;;;1855098;77;21010;-78
2022/03/10 05:56:22;;;;;;;28.40;16.62;;;-1.80;99.90;;;;;;1855175;77;21450;-79
2022/03/10 05:58:49;;;;;;;31.15;17.05;;;-1.80;99.90;;;;;;1855157;77;21019;-78
2022/03/10 06:01:16;;;;;;;30.17;17.45;;;-1.80;99.90;;;;;;1855259;77;21558;-78
2022/03/10 06:03:43;;;;;;;28.20;17.05;;;-1.80;99.90;;;;;;1832045;77;21014;-79
2022/03/10 06:06:12;;;;;;;31.65;15.20;;;-1.80;99.90;;;;;;1857889;76;21026;-78
2022/03/10 06:08:39;;;;;;;30.75;16.20;;;-1.80;99.90;;;;;;1857667;77;21038;-79
2022/03/10 06:11:07;;;;;;;27.60;16.30;;;-1.80;99.90;;;;;;1855077;77;21061;-78
2022/03/10 06:13:34;;;;;;;32.53;16.10;;;-1.80;99.90;;;;;;1855210;77;21250;-79
2022/03/10 06:16:02;;;;;;;28.42;15.95;;;-1.80;99.90;;;;;;1855095;77;21112;-79
2022/03/10 06:18:30;;;;;;;32.73;16.55;;;-1.90;99.90;;;;;;1855181;77;21054;-83
2022/03/10 06:20:58;;;;;;;31.77;16.90;;;-1.90;99.90;;;;;;1855250;77;21045;-80
2022/03/10 06:23:26;;;;;;;29.30;16.67;;;-1.90;99.90;;;;;;1855079;77;21069;-80
2022/03/10 06:25:55;;;;;;;27.22;15.85;;;-1.90;99.90;;;;;;1855075;77;21045;-80
2022/03/10 06:28:22;;;;;;;26.75;16.20;;;-1.90;99.90;;;;;;1855064;77;21465;-79
2022/03/10 06:30:50;;;;;;;28.05;14.93;;;-1.80;99.90;;;;;;1855129;77;21124;-77
2022/03/10 06:33:17;;;;;;;23.15;14.23;;;-1.80;99.90;;;;;;1855141;77;21041;-77
2022/03/10 06:35:46;;;;;;;28.73;16.12;;;-1.70;99.90;;;;;;1854986;77;21410;-75
2022/03/10 06:38:13;;;;;;;49.10;16.55;;;-1.70;99.90;;;;;;1855162;77;21069;-78
2022/03/10 06:40:40;;;;;;;31.57;17.23;;;-1.70;99.90;;;;;;1854936;77;21501;-78
2022/03/10 06:43:08;;;;;;;37.38;17.30;;;-1.60;99.90;;;;;;1855122;77;21006;-77
2022/03/10 06:45:43;;;;;;;23.85;14.78;;;-1.50;99.90;;;;;;1854924;77;21500;-79
2022/03/10 06:48:10;;;;;;;27.58;15.48;;;-1.50;99.90;;;;;;1854956;77;21479;-83
2022/03/10 06:50:39;;;;;;;38.58;17.62;;;-1.50;99.90;;;;;;1855204;77;21594;-81
2022/03/10 06:53:07;;;;;;;27.35;15.68;;;-1.50;99.90;;;;;;1855131;77;21191;-77
2022/03/10 06:55:34;;;;;;;38.50;16.65;;;-1.40;99.90;;;;;;1855110;77;21045;-79
2022/03/10 06:58:01;;;;;;;37.25;17.87;;;-1.40;99.90;;;;;;1855011;77;21128;-79
2022/03/10 07:00:29;;;;;;;35.80;17.57;;;-1.30;99.90;;;;;;1855187;77;21038;-78
2022/03/10 07:02:56;;;;;;;35.80;17.25;;;-1.20;99.90;;;;;;1855152;77;21485;-78
2022/03/10 07:05:25;;;;;;;28.17;16.95;;;-1.20;99.90;;;;;;1855051;77;21147;-78
2022/03/10 07:07:54;;;;;;;55.70;20.02;;;-1.10;99.90;;;;;;1855027;77;21018;-77
2022/03/10 07:10:25;;;;;;;29.72;17.75;;;-0.90;99.90;;;;;;1831816;77;21107;-80
2022/03/10 07:12:54;;;;;;;26.60;16.45;;;-0.90;99.90;;;;;;1855110;77;21070;-80
2022/03/10 07:15:22;;;;;;;33.42;17.57;;;-0.70;99.90;;;;;;1855113;77;21152;-80
2022/03/10 07:17:50;;;;;;;34.70;17.60;;;-0.60;99.90;;;;;;1855054;77;21144;-78
2022/03/10 07:20:18;;;;;;;33.15;17.95;;;-0.50;99.90;;;;;;1854960;77;21163;-78
2022/03/10 07:22:46;;;;;;;29.48;18.30;;;-0.50;99.90;;;;;;1855040;77;21159;-77
2022/03/10 07:25:13;;;;;;;27.70;17.77;;;-0.40;99.90;;;;;;1855105;77;21054;-78
2022/03/10 07:27:41;;;;;;;35.50;18.67;;;-0.20;99.90;;;;;;1855039;77;21018;-77
2022/03/10 07:30:09;;;;;;;29.67;17.62;;;-0.20;99.90;;;;;;1855004;77;21088;-78
2022/03/10 07:32:36;;;;;;;26.97;16.82;;;-0.10;99.90;;;;;;1855268;77;21073;-79
2022/03/10 07:35:08;;;;;;;32.75;18.98;;;0.00;99.90;;;;;;1855217;77;21115;-78
2022/03/10 07:37:42;;;;;;;29.18;17.15;;;0.10;99.90;;;;;;1855217;77;21081;-80
2022/03/10 07:40:12;;;;;;;33.28;17.48;;;0.20;99.90;;;;;;1855172;77;21152;-80
2022/03/10 07:42:40;;;;;;;41.35;19.15;;;0.40;99.90;;;;;;1855057;77;21110;-79
2022/03/10 07:45:10;;;;;;;36.53;19.05;;;0.40;99.90;;;;;;1855024;77;21058;-77
2022/03/10 07:47:39;;;;;;;37.28;18.95;;;0.50;99.90;;;;;;1855246;77;21426;-77
2022/03/10 07:50:11;;;;;;;31.48;17.73;;;0.70;99.90;;;;;;1855169;77;21117;-77
2022/03/10 07:52:41;;;;;;;38.67;17.52;;;0.80;99.90;;;;;;1855019;77;21022;-79
2022/03/10 07:55:09;;;;;;;31.82;18.70;;;1.00;99.90;;;;;;1855129;77;21073;-78
2022/03/10 07:57:41;;;;;;;34.85;17.42;;;1.10;99.90;;;;;;1855088;77;21572;-78
2022/03/10 08:00:11;;;;;;;37.73;18.70;;;1.20;99.90;;;;;;1854976;76;21131;-79
2022/03/10 08:02:39;;;;;;;;;;;1.50;99.90;;;;;;1857840;77;21065;-77
2022/03/10 08:05:09;;;;;;;34.75;17.90;;;1.60;99.90;;;;;;1855109;77;20181;-78
2022/03/10 08:07:39;;;;;;;28.90;17.90;;;1.90;99.90;;;;;;1855114;77;21089;-78
2022/03/10 08:10:09;;;;;;;44.40;17.75;;;1.90;99.90;;;;;;1855183;77;21081;-77
2022/03/10 08:12:40;;;;;;;29.18;18.00;;;2.00;99.90;;;;;;1855348;77;21158;-77
2022/03/10 08:15:10;;;;;;;38.08;16.37;;;2.30;99.90;;;;;;1855328;77;21437;-76
2022/03/10 08:17:39;;;;;;;33.33;18.27;;;2.30;99.90;;;;;;1826113;77;21104;-78
2022/03/10 08:20:08;;;;;;;38.48;18.80;;;2.50;99.90;;;;;;1855232;77;21529;-78
2022/03/10 08:22:35;;;;;;;35.70;18.87;;;2.60;99.90;;;;;;1855205;77;21120;-77
2022/03/10 08:25:07;;;;;;;30.52;17.27;;;2.80;99.90;;;;;;1855386;77;21046;-76
2022/03/10 08:27:39;;;;;;;30.95;17.23;;;3.00;99.90;;;;;;1855373;77;21014;-76
2022/03/10 08:30:13;;;;;;;31.73;17.50;;;3.20;99.90;;;;;;1855443;77;21061;-75
2022/03/10 08:33:02;;;;;;;27.52;17.25;;;3.60;99.90;;;;;;1855318;77;21061;-76
2022/03/10 08:35:32;;;;;;;27.37;16.42;;;3.80;99.90;;;;;;1859210;77;21126;-77
2022/03/10 08:38:01;;;;;;;38.55;16.45;;;4.00;99.90;;;;;;1858961;77;21133;-75
2022/03/10 08:40:31;;;;;;;28.87;17.35;;;4.20;99.90;;;;;;1859299;77;21149;-77
2022/03/10 08:42:59;;;;;;;30.02;17.05;;;4.20;99.90;;;;;;1859408;77;21028;-77
2022/03/10 08:45:26;;;;;;;28.10;16.85;;;4.90;99.90;;;;;;1859155;77;21086;-77
2022/03/10 08:47:59;;;;;;;31.10;16.90;;;5.20;99.90;;;;;;1858880;77;21222;-77
2022/03/10 08:50:28;;;;;;;28.23;17.45;;;5.40;99.90;;;;;;1858584;77;21132;-77
2022/03/10 08:52:57;;;;;;;33.73;16.87;;;5.90;99.90;;;;;;1858710;76;21096;-77
2022/03/10 08:55:58;;;;;;;32.67;17.60;;;6.00;99.90;;;;;;1858780;77;21063;-78
2022/03/10 08:58:27;;;;;;;32.53;17.17;;;6.00;99.90;;;;;;1858910;77;21133;-78
2022/03/10 09:00:59;;;;;;;27.98;15.88;;;6.40;99.90;;;;;;1858871;77;21058;-77
2022/03/10 09:03:28;;;;;;;37.17;16.40;;;6.60;99.90;;;;;;1858762;77;21125;-77
2022/03/10 09:05:59;;;;;;;34.18;16.48;;;6.80;99.90;;;;;;1858743;77;21230;-78
2022/03/10 09:08:30;;;;;;;32.23;17.55;;;6.80;99.90;;;;;;1858861;77;21056;-76
2022/03/10 09:10:58;;;;;;;;;;;7.00;99.90;;;;;;1861457;76;21499;-78
2022/03/10 09:13:28;;;;;;;26.57;16.23;;;6.60;99.90;;;;;;1858800;77;20111;-77
2022/03/10 09:15:58;;;;;;;29.00;16.82;;;6.50;99.90;;;;;;1837463;77;21495;-77
2022/03/10 09:18:25;;;;;;;25.48;15.20;;;6.70;99.90;;;;;;1858995;77;21154;-78
2022/03/10 09:20:54;;;;;;;30.37;17.10;;;7.60;99.90;;;;;;1858813;76;21196;-77
2022/03/10 09:23:23;;;;;;;25.25;14.85;;;8.00;99.90;;;;;;1858863;77;21146;-78
2022/03/10 09:25:52;;;;;;;28.05;15.80;;;8.20;99.90;;;;;;1858816;77;21093;-78
2022/03/10 09:28:19;;;;;;;30.95;16.55;;;8.40;99.90;;;;;;1858757;77;21059;-77
2022/03/10 09:30:47;;;;;;;26.45;15.23;;;9.20;99.90;;;;;;1858838;76;21472;-78
2022/03/10 09:33:16;;;;;;;28.57;15.08;;;9.40;99.90;;;;;;1858920;76;21063;-78
2022/03/10 09:35:45;;;;;;;29.77;15.20;;;9.80;99.90;;;;;;1858841;77;21104;-78
2022/03/10 09:38:13;;;;;;;25.17;15.25;;;9.70;99.90;;;;;;1858821;77;21091;-79
2022/03/10 09:40:40;;;;;;;27.32;15.32;;;10.40;99.90;;;;;;1858872;77;21129;-78
2022/03/10 09:43:07;;;;;;;26.17;15.60;;;10.90;99.90;;;;;;1858838;77;21559;-77
2022/03/10 09:45:35;;;;;;;24.30;14.95;;;11.10;99.90;;;;;;1858819;77;21141;-77
2022/03/10 09:48:25;;;;;;;22.35;13.80;;;11.50;99.90;;;;;;1858894;77;21141;-78
2022/03/10 09:50:54;;;;;;;23.45;13.38;;;11.60;98.40;;;;;;1772714;81;21166;-78
2022/03/10 09:53:25;;;;;;;27.93;14.68;;;11.60;97.40;;;;;;1775939;81;21433;-79
2022/03/10 09:55:55;;;;;;;21.48;12.53;;;11.30;97.20;;;;;;1760289;81;21065;-78
2022/03/10 09:58:22;;;;;;;19.25;13.32;;;11.90;97.40;;;;;;1775682;81;21075;-78
2022/03/10 10:00:52;;;;;;;26.93;13.28;;;12.60;95.10;;;;;;1775999;81;21071;-78
2022/03/10 10:03:19;;;;;;;20.30;12.55;;;13.20;95.20;;;;;;1775736;80;21195;-78
2022/03/10 10:05:48;;;;;;;22.55;10.90;;;13.50;92.40;;;;;;1776107;81;21443;-79
2022/03/10 10:08:19;;;;;;;19.50;10.33;;;13.50;90.90;;;;;;1776368;81;21045;-78
2022/03/10 10:10:47;;;;;;;;;;;13.80;90.20;;;;;;1755681;81;21126;-78
2022/03/10 10:13:37;;;;;;;17.20;9.80;;;14.20;87.30;;;;;;1730115;83;20178;-78
2022/03/10 10:16:09;;;;;;;16.10;9.93;;;14.00;85.60;;;;;;1760131;80;21510;-78
2022/03/10 10:18:39;;;;;;;17.62;8.40;;;14.20;85.90;;;;;;1775863;81;21059;-79
2022/03/10 10:21:07;;;;;;;16.02;9.43;;;14.50;84.00;;;;;;1775739;80;21118;-79
2022/03/10 10:23:35;;;;;;;15.68;8.58;;;14.90;83.80;;;;;;1775841;81;21507;-79
2022/03/10 10:26:05;;;;;;;15.75;7.80;;;15.80;78.50;;;;;;1775664;81;21067;-78
2022/03/10 10:28:44;;;;;;;11.30;7.70;;;15.20;75.30;;;;;;1760151;81;21166;-79
2022/03/10 10:31:14;;;;;;;14.33;7.55;;;13.90;79.50;;;;;;1775265;81;21063;-78
2022/03/10 10:33:43;;;;;;;5.63;3.70;;;14.50;80.90;;;;;;1776068;81;21530;-79
2022/03/10 10:36:24;;;;;;;3.95;2.70;;;15.00;72.30;;;;;;1775827;81;21472;-79
2022/03/10 10:38:53;;;;;;;7.83;2.50;;;15.20;71.60;;;;;;1760585;81;21058;-79
2022/03/10 10:41:23;;;;;;;2.35;2.15;;;15.50;67.80;;;;;;1775980;81;21162;-79
2022/03/10 10:44:01;;;;;;;3.62;2.60;;;15.70;66.30;;;;;;1775945;80;21079;-79
2022/03/10 10:46:31;;;;;;;7.08;3.40;;;15.30;64.70;;;;;;1760772;81;21062;-79
2022/03/10 10:49:01;;;;;;;2.83;2.45;;;15.60;64.80;;;;;;1776091;81;21044;-80
2022/03/10 10:51:33;;;;;;;3.72;2.30;;;15.90;63.50;;;;;;1775469;81;21461;-80
2022/03/10 10:54:05;;;;;;;3.27;2.45;;;16.40;61.90;;;;;;1776163;81;21455;-79
2022/03/10 10:56:35;;;;;;;2.92;2.58;;;16.20;60.80;;;;;;1776203;81;21064;-79
2022/03/10 10:59:03;;;;;;;3.30;2.27;;;16.50;60.20;;;;;;1776276;81;21091;-80
2022/03/10 11:01:34;;;;;;;3.00;2.33;;;16.20;59.80;;;;;;1776309;81;21435;-81
2022/03/10 11:04:01;;;;;;;;;;;16.50;59.10;;;;;;1747506;82;21145;-80
2022/03/10 11:06:31;;;;;;;3.00;2.30;;;16.60;58.80;;;;;;1777385;81;20119;-78
2022/03/10 11:09:00;;;;;;;6.20;2.40;;;16.90;57.90;;;;;;1777300;80;21094;-81
2022/03/10 11:11:38;;;;;;;2.40;2.10;;;17.30;57.20;;;;;;1776211;80;21181;-80
2022/03/10 11:14:08;;;;;;;7.92;2.47;;;16.90;55.40;;;;;;1775843;81;21527;-81
2022/03/10 11:16:38;;;;;;;4.80;2.60;;;16.20;56.30;;;;;;1776443;80;21103;-81
2022/03/10 11:19:05;;;;;;;;;;;16.50;56.70;;;;;;1778572;81;21437;-83
2022/03/10 11:21:36;;;;;;;4.75;2.90;;;16.80;55.80;;;;;;1744341;82;20161;-84
2022/03/10 11:24:10;;;;;;;3.22;2.65;;;16.70;55.80;;;;;;1776970;80;21209;-81
2022/03/10 11:27:00;;;;;;;5.62;2.15;;;16.80;55.10;;;;;;1761132;81;21052;-85
2022/03/10 11:29:29;;;;;;;4.47;2.30;;;16.70;55.40;;;;;;1760753;81;21073;-82
2022/03/10 11:32:01;;;;;;;4.87;2.62;;;16.70;55.20;;;;;;1760154;81;21038;-79
2022/03/10 11:34:49;;;;;;;2.10;1.90;;;16.70;54.60;;;;;;1775608;80;21091;-80
2022/03/10 11:37:40;;;;;;;2.83;2.30;;;17.00;53.80;;;;;;1776110;81;21436;-83
2022/03/10 11:40:15;;;;;;;2.85;2.50;;;17.10;53.50;;;;;;1773732;81;21437;-82
2022/03/10 11:42:43;;;;;;;4.28;2.37;;;16.60;53.70;;;;;;1776406;81;21078;-84
2022/03/10 11:45:18;;;;;;;5.25;2.67;;;16.90;53.50;;;;;;1776294;81;21075;-81
2022/03/10 11:47:49;;;;;;;5.42;2.45;;;17.40;53.20;;;;;;1776453;81;21409;-80
2022/03/10 11:50:25;;;;;;;4.53;2.33;;;17.20;52.30;;;;;;1776496;81;21141;-83
2022/03/10 11:52:55;;;;;;;3.75;2.67;;;16.70;53.20;;;;;;1776856;80;21626;-80
2022/03/10 11:55:23;;;;;;;4.33;2.72;;;16.30;53.20;;;;;;1767800;81;21130;-79
2022/03/10 11:58:04;;;;;;;3.60;2.85;;;17.10;54.00;;;;;;1760518;81;21072;-81
2022/03/10 12:00:46;;;;;;;4.83;2.85;;;17.60;52.30;;;;;;1760494;81;21507;-79
2022/03/10 12:03:18;;;;;;;3.10;2.80;;;17.30;51.00;;;;;;1761609;79;21073;-79
2022/03/10 12:05:57;;;;;;;3.30;2.70;;;16.90;51.40;;;;;;1761398;81;21064;-81
2022/03/10 12:08:26;;;;;;;4.80;3.00;;;17.10;52.00;;;;;;1736913;81;21147;-80
2022/03/10 12:10:54;;;;;;;2.98;2.60;;;17.10;51.30;;;;;;1776567;80;21491;-80
2022/03/10 12:13:23;;;;;;;3.90;2.75;;;17.40;51.50;;;;;;1776158;81;21181;-81
2022/03/10 12:15:51;;;;;;;2.90;2.60;;;17.70;50.60;;;;;;1776218;81;21095;-79
2022/03/10 12:18:21;;;;;;;4.05;2.80;;;18.20;50.80;;;;;;1776090;81;21547;-79
2022/03/10 12:20:49;;;;;;;;;;;18.50;49.20;;;;;;1778832;81;21076;-80
2022/03/10 12:23:19;;;;;;;3.75;2.83;;;18.90;48.40;;;;;;1744310;82;20334;-81
2022/03/10 12:25:58;;;;;;;6.58;3.10;;;18.60;47.70;;;;;;1731854;81;21598;-79
2022/03/10 12:28:34;;;;;;;5.12;3.30;;;18.40;47.50;;;;;;1774314;80;21116;-83
2022/03/10 12:31:16;;;;;;;3.47;3.17;;;18.60;48.50;;;;;;1775182;80;21583;-82
2022/03/10 12:33:54;;;;;;;6.72;2.98;;;18.20;47.90;;;;;;1776256;80;21180;-83
2022/03/10 12:36:31;;;;;;;5.33;3.02;;;18.30;48.70;;;;;;1776192;81;21071;-80
2022/03/10 12:39:03;;;;;;;4.92;3.08;;;18.50;46.40;;;;;;1755384;79;21168;-82
2022/03/10 12:41:33;;;;;;;5.20;2.98;;;18.10;47.50;;;;;;1736685;81;21050;-80
2022/03/10 12:44:03;;;;;;;4.97;3.10;;;17.90;48.00;;;;;;1759101;81;21073;-81
2022/03/10 12:46:30;;;;;;;4.30;2.87;;;17.60;48.90;;;;;;1775351;81;21456;-81
2022/03/10 12:49:06;;;;;;;5.65;3.40;;;18.50;47.90;;;;;;1775877;81;21099;-81
2022/03/10 12:51:36;;;;;;;5.25;3.20;;;18.50;46.70;;;;;;1759977;81;21663;-82